createdAt,value
2018-04-15T00:00:23.288Z,5.10
2018-04-15T00:01:23.306Z,5.20
2018-04-15T00:02:23.324Z,5.10
2018-04-15T00:03:23.335Z,5.00
2018-04-15T00:04:23.353Z,5.10
2018-04-15T00:05:23.421Z,5.00
2018-04-15T00:06:23.448Z,5.00
2018-04-15T00:07:23.414Z,5.20
2018-04-15T00:08:23.424Z,5.20
2018-04-15T00:09:23.443Z,4.80
2018-04-15T00:10:23.454Z,5.70
2018-04-15T00:11:23.525Z,5.10
2018-04-15T00:12:23.492Z,5.30
2018-04-15T00:13:23.505Z,5.00
2018-04-15T00:14:23.538Z,5.40
2018-04-15T00:15:23.545Z,4.70
2018-04-15T00:16:23.562Z,5.30
2018-04-15T00:17:23.636Z,5.50
2018-04-15T00:18:23.589Z,5.60
2018-04-15T00:19:23.609Z,5.30
2018-04-15T00:20:23.629Z,5.50
2018-04-15T00:21:23.642Z,5.30
2018-04-15T00:22:23.661Z,5.70
2018-04-15T00:23:23.720Z,5.60
2018-04-15T00:24:23.695Z,5.90
2018-04-15T00:25:23.711Z,5.40
2018-04-15T00:26:23.728Z,9.70
2018-04-15T00:27:23.745Z,5.60
2018-04-15T00:28:23.770Z,6.00
2018-04-15T00:29:23.837Z,5.80
2018-04-15T00:30:23.799Z,36.80
2018-04-15T00:31:23.813Z,5.50
2018-04-15T00:32:23.829Z,6.00
2018-04-15T00:33:23.852Z,5.80
2018-04-15T00:34:23.870Z,8.20
2018-04-15T00:35:23.922Z,6.70
2018-04-15T00:36:23.904Z,7.20
2018-04-15T00:37:23.920Z,7.10
2018-04-15T00:38:23.935Z,7.60
2018-04-15T00:39:23.951Z,8.00
2018-04-15T00:40:23.970Z,8.50
2018-04-15T00:41:24.047Z,8.20
2018-04-15T00:42:24.004Z,8.50
2018-04-15T00:43:24.015Z,8.50
2018-04-15T00:44:24.030Z,9.40
2018-04-15T00:45:24.052Z,9.20
2018-04-15T00:46:24.065Z,9.30
2018-04-15T00:47:24.142Z,8.20
2018-04-15T00:48:24.132Z,8.90
2018-04-15T00:49:24.125Z,14.10
2018-04-15T00:50:24.136Z,10.90
2018-04-15T00:51:24.158Z,23.10
2018-04-15T00:52:24.171Z,13.30
2018-04-15T00:53:24.241Z,10.90
2018-04-15T00:54:24.214Z,9.10
2018-04-15T00:55:24.220Z,6.50
2018-04-15T00:56:24.242Z,7.30
2018-04-15T00:57:24.260Z,7.70
2018-04-15T00:58:24.274Z,6.50
2018-04-15T00:59:24.344Z,6.20
2018-04-15T01:00:24.311Z,5.90
2018-04-15T01:01:24.327Z,5.10
2018-04-15T01:02:24.345Z,5.50
2018-04-15T01:03:24.364Z,5.20
2018-04-15T01:04:24.376Z,5.20
2018-04-15T01:05:24.397Z,5.00
2018-04-15T01:06:24.470Z,4.60
2018-04-15T01:07:24.429Z,4.60
2018-04-15T01:08:24.445Z,5.00
2018-04-15T01:09:24.463Z,4.90
2018-04-15T01:10:24.482Z,4.90
2018-04-15T01:11:24.549Z,4.60
2018-04-15T01:12:24.539Z,3.80
2018-04-15T01:13:24.532Z,4.40
2018-04-15T01:14:24.549Z,4.30
2018-04-15T01:15:24.563Z,4.50
2018-04-15T01:16:24.580Z,4.80
2018-04-15T01:17:24.655Z,4.70
2018-04-15T01:18:24.621Z,4.10
2018-04-15T01:19:24.635Z,4.10
2018-04-15T01:20:24.651Z,4.20
2018-04-15T01:21:24.664Z,4.30
2018-04-15T01:22:24.690Z,4.20
2018-04-15T01:23:24.703Z,4.10
2018-04-15T01:24:24.716Z,4.80
2018-04-15T01:25:24.741Z,4.50
2018-04-15T01:26:24.751Z,5.00
2018-04-15T01:27:24.773Z,4.90
2018-04-15T01:28:24.783Z,5.10
2018-04-15T01:29:24.857Z,5.80
2018-04-15T01:30:24.843Z,5.20
2018-04-15T01:31:24.835Z,4.50
2018-04-15T01:32:24.857Z,4.80
2018-04-15T01:33:24.871Z,5.80
2018-04-15T01:34:24.886Z,5.40
2018-04-15T01:35:24.939Z,5.60
2018-04-15T01:36:24.917Z,6.10
2018-04-15T01:37:24.935Z,6.40
2018-04-15T01:38:24.952Z,7.10
2018-04-15T01:39:24.975Z,9.10
2018-04-15T01:40:24.983Z,9.10
2018-04-15T01:41:25.065Z,10.10
2018-04-15T01:42:25.025Z,11.30
2018-04-15T01:43:25.147Z,11.40
2018-04-15T01:44:25.052Z,12.40
2018-04-15T01:45:25.075Z,12.90
2018-04-15T01:46:25.095Z,13.30
2018-04-15T01:47:25.104Z,14.60
2018-04-15T01:48:25.119Z,15.80
2018-04-15T01:49:25.172Z,16.00
2018-04-15T01:50:25.153Z,16.80
2018-04-15T01:51:25.174Z,17.50
2018-04-15T01:52:25.188Z,16.30
2018-04-15T01:53:25.254Z,14.00
2018-04-15T01:54:25.221Z,13.50
2018-04-15T01:55:25.241Z,13.40
2018-04-15T01:56:25.253Z,14.50
2018-04-15T01:57:25.276Z,15.80
2018-04-15T01:58:25.295Z,17.10
2018-04-15T01:59:25.308Z,16.60
2018-04-15T02:00:25.324Z,14.60
2018-04-15T02:01:25.345Z,14.00
2018-04-15T02:02:25.356Z,13.60
2018-04-15T02:03:25.372Z,14.70
2018-04-15T02:04:25.393Z,13.50
2018-04-15T02:05:25.475Z,16.10
2018-04-15T02:06:25.428Z,15.80
2018-04-15T02:07:25.441Z,14.80
2018-04-15T02:08:25.461Z,16.70
2018-04-15T02:09:25.479Z,16.10
2018-04-15T02:10:25.492Z,15.00
2018-04-15T02:11:25.561Z,16.20
2018-04-15T02:12:25.533Z,17.60
2018-04-15T02:13:25.613Z,15.40
2018-04-15T02:14:25.607Z,18.00
2018-04-15T02:15:25.585Z,17.60
2018-04-15T02:16:25.598Z,17.40
2018-04-15T02:17:25.667Z,18.50
2018-04-15T02:18:25.647Z,17.90
2018-04-15T02:19:25.708Z,19.00
2018-04-15T02:20:25.667Z,20.10
2018-04-15T02:21:25.682Z,20.10
2018-04-15T02:22:25.709Z,21.10
2018-04-15T02:23:25.712Z,21.00
2018-04-15T02:24:25.728Z,19.20
2018-04-15T02:25:25.843Z,17.00
2018-04-15T02:26:25.774Z,17.10
2018-04-15T02:27:25.785Z,15.00
2018-04-15T02:28:25.804Z,15.70
2018-04-15T02:29:25.819Z,14.10
2018-04-15T02:30:25.835Z,11.30
2018-04-15T02:31:25.856Z,9.90
2018-04-15T02:32:25.891Z,9.80
2018-04-15T02:33:25.884Z,11.00
2018-04-15T02:34:25.906Z,9.80
2018-04-15T02:35:26.040Z,9.10
2018-04-15T02:36:25.938Z,8.40
2018-04-15T02:37:25.951Z,8.40
2018-04-15T02:38:25.975Z,5.10
2018-04-15T02:39:25.987Z,5.70
2018-04-15T02:40:26.000Z,6.40
2018-04-15T02:41:26.020Z,6.10
2018-04-15T02:42:26.034Z,4.60
2018-04-15T02:43:26.072Z,4.60
2018-04-15T02:44:26.075Z,5.90
2018-04-15T02:45:26.091Z,5.80
2018-04-15T02:46:26.111Z,4.80
2018-04-15T02:47:26.125Z,4.50
2018-04-15T02:48:26.137Z,4.50
2018-04-15T02:49:26.174Z,3.80
2018-04-15T02:50:26.188Z,3.60
2018-04-15T02:51:26.195Z,3.80
2018-04-15T02:52:26.207Z,4.10
2018-04-15T02:53:26.274Z,3.80
2018-04-15T02:54:26.246Z,3.80
2018-04-15T02:55:26.262Z,3.90
2018-04-15T02:56:26.276Z,3.60
2018-04-15T02:57:26.291Z,3.90
2018-04-15T02:58:26.311Z,4.20
2018-04-15T02:59:26.379Z,3.50
2018-04-15T03:00:26.346Z,4.10
2018-04-15T03:01:26.361Z,4.10
2018-04-15T03:02:26.379Z,4.00
2018-04-15T03:03:26.399Z,3.80
2018-04-15T03:04:26.415Z,3.80
2018-04-15T03:05:26.433Z,3.80
2018-04-15T03:06:26.445Z,3.70
2018-04-15T03:07:26.465Z,4.10
2018-04-15T03:08:26.484Z,3.70
2018-04-15T03:09:26.496Z,3.50
2018-04-15T03:10:26.514Z,2.80
2018-04-15T03:11:26.588Z,3.40
2018-04-15T03:12:26.555Z,3.60
2018-04-15T03:13:26.571Z,4.10
2018-04-15T03:14:26.650Z,3.80
2018-04-15T03:15:26.604Z,4.20
2018-04-15T03:16:26.616Z,4.20
2018-04-15T03:17:26.693Z,4.40
2018-04-15T03:18:26.658Z,4.40
2018-04-15T03:19:26.671Z,4.30
2018-04-15T03:20:26.729Z,4.60
2018-04-15T03:21:26.713Z,5.00
2018-04-15T03:22:26.730Z,4.50
2018-04-15T03:23:26.792Z,5.30
2018-04-15T03:24:26.761Z,5.10
2018-04-15T03:25:26.777Z,5.40
2018-04-15T03:26:26.795Z,5.50
2018-04-15T03:27:26.814Z,5.60
2018-04-15T03:28:26.831Z,6.20
2018-04-15T03:29:26.900Z,5.30
2018-04-15T03:30:26.865Z,4.70
2018-04-15T03:31:26.884Z,5.10
2018-04-15T03:32:26.949Z,4.70
2018-04-15T03:33:26.914Z,4.00
2018-04-15T03:34:26.934Z,4.40
2018-04-15T03:35:27.003Z,4.20
2018-04-15T03:36:26.964Z,5.80
2018-04-15T03:37:26.979Z,6.50
2018-04-15T03:38:27.013Z,7.30
2018-04-15T03:39:27.019Z,7.90
2018-04-15T03:40:27.040Z,9.80
2018-04-15T03:41:27.055Z,10.40
2018-04-15T03:42:27.072Z,12.40
2018-04-15T03:43:27.088Z,15.70
2018-04-15T03:44:27.104Z,14.10
2018-04-15T03:45:27.122Z,15.60
2018-04-15T03:46:27.190Z,15.80
2018-04-15T03:47:27.159Z,14.90
2018-04-15T03:48:27.175Z,17.60
2018-04-15T03:49:27.189Z,19.10
2018-04-15T03:50:27.211Z,17.70
2018-04-15T03:51:27.228Z,17.60
2018-04-15T03:52:27.246Z,17.50
2018-04-15T03:53:27.260Z,16.70
2018-04-15T03:54:27.282Z,17.90
2018-04-15T03:55:27.295Z,18.50
2018-04-15T03:56:27.318Z,16.80
2018-04-15T03:57:27.344Z,19.00
2018-04-15T03:58:27.352Z,21.20
2018-04-15T03:59:27.367Z,22.00
2018-04-15T04:00:27.381Z,22.80
2018-04-15T04:01:27.401Z,20.20
2018-04-15T04:02:27.418Z,25.30
2018-04-15T04:03:27.435Z,32.40
2018-04-15T04:04:27.506Z,28.10
2018-04-15T04:05:27.474Z,33.60
2018-04-15T04:06:27.489Z,33.50
2018-04-15T04:07:27.512Z,27.40
2018-04-15T04:08:27.527Z,33.30
2018-04-15T04:09:27.546Z,28.30
2018-04-15T04:10:27.564Z,24.40
2018-04-15T04:11:27.580Z,33.80
2018-04-15T04:12:27.607Z,41.90
2018-04-15T04:13:27.618Z,28.80
2018-04-15T04:14:27.631Z,35.60
2018-04-15T04:15:27.718Z,27.40
2018-04-15T04:16:27.721Z,31.10
2018-04-15T04:17:27.688Z,26.70
2018-04-15T04:18:27.705Z,34.40
2018-04-15T04:19:27.723Z,33.80
2018-04-15T04:20:27.786Z,32.90
2018-04-15T04:21:27.762Z,34.20
2018-04-15T04:22:27.779Z,38.70
2018-04-15T04:23:27.786Z,32.60
2018-04-15T04:24:27.808Z,33.40
2018-04-15T04:25:27.824Z,32.00
2018-04-15T04:26:27.839Z,35.80
2018-04-15T04:27:27.872Z,36.80
2018-04-15T04:28:27.881Z,37.20
2018-04-15T04:29:27.891Z,31.70
2018-04-15T04:30:27.913Z,39.50
2018-04-15T04:31:27.927Z,35.70
2018-04-15T04:32:27.951Z,35.60
2018-04-15T04:33:27.968Z,33.90
2018-04-15T04:34:28.100Z,33.20
2018-04-15T04:35:28.007Z,30.40
2018-04-15T04:36:28.021Z,30.90
2018-04-15T04:37:28.034Z,35.10
2018-04-15T04:38:28.055Z,43.70
2018-04-15T04:39:28.067Z,41.10
2018-04-15T04:40:28.105Z,36.10
2018-04-15T04:41:28.100Z,46.40
2018-04-15T04:42:28.121Z,48.90
2018-04-15T04:43:28.144Z,38.90
2018-04-15T04:44:28.165Z,44.10
2018-04-15T04:45:28.178Z,38.50
2018-04-15T04:46:28.241Z,43.90
2018-04-15T04:47:28.209Z,42.70
2018-04-15T04:48:28.229Z,37.50
2018-04-15T04:49:28.243Z,38.10
2018-04-15T04:50:28.267Z,40.90
2018-04-15T04:51:28.283Z,32.60
2018-04-15T04:52:28.300Z,34.50
2018-04-15T04:53:28.316Z,24.20
2018-04-15T04:54:28.335Z,31.50
2018-04-15T04:55:28.348Z,24.90
2018-04-15T04:56:28.371Z,33.30
2018-04-15T04:57:28.387Z,34.10
2018-04-15T04:58:28.404Z,39.80
2018-04-15T04:59:28.501Z,36.20
2018-04-15T05:00:28.439Z,38.90
2018-04-15T05:01:28.456Z,39.90
2018-04-15T05:02:28.473Z,47.40
2018-04-15T05:03:28.491Z,47.60
2018-04-15T05:04:28.514Z,41.10
2018-04-15T05:05:28.563Z,38.60
2018-04-15T05:06:28.543Z,35.00
2018-04-15T05:07:28.559Z,40.10
2018-04-15T05:08:28.584Z,45.40
2018-04-15T05:09:28.623Z,45.00
2018-04-15T05:10:28.618Z,40.20
2018-04-15T05:11:28.635Z,44.60
2018-04-15T05:12:28.651Z,48.60
2018-04-15T05:13:28.670Z,49.50
2018-04-15T05:14:28.701Z,50.20
2018-04-15T05:15:28.703Z,49.00
2018-04-15T05:16:28.775Z,48.60
2018-04-15T05:17:28.741Z,49.60
2018-04-15T05:18:28.756Z,52.30
2018-04-15T05:19:28.777Z,39.30
2018-04-15T05:20:28.791Z,39.80
2018-04-15T05:21:28.813Z,39.10
2018-04-15T05:22:28.829Z,33.50
2018-04-15T05:23:28.848Z,36.60
2018-04-15T05:24:28.894Z,37.40
2018-04-15T05:25:28.883Z,39.70
2018-04-15T05:26:28.901Z,36.30
2018-04-15T05:27:28.919Z,35.10
2018-04-15T05:28:28.986Z,34.80
2018-04-15T05:29:28.949Z,32.10
2018-04-15T05:30:28.983Z,34.80
2018-04-15T05:31:28.984Z,40.10
2018-04-15T05:32:29.004Z,35.00
2018-04-15T05:33:29.022Z,41.10
2018-04-15T05:34:29.092Z,30.00
2018-04-15T05:35:29.061Z,27.80
2018-04-15T05:36:29.075Z,26.50
2018-04-15T05:37:29.102Z,23.90
2018-04-15T05:38:29.106Z,26.40
2018-04-15T05:39:29.128Z,33.90
2018-04-15T05:40:29.197Z,30.00
2018-04-15T05:41:29.162Z,31.90
2018-04-15T05:42:29.182Z,36.50
2018-04-15T05:43:29.198Z,36.70
2018-04-15T05:44:29.221Z,32.50
2018-04-15T05:45:29.244Z,36.30
2018-04-15T05:46:29.253Z,33.10
2018-04-15T05:47:29.268Z,39.40
2018-04-15T05:48:29.289Z,39.30
2018-04-15T05:49:29.360Z,36.80
2018-04-15T05:50:29.326Z,35.10
2018-04-15T05:51:29.343Z,38.30
2018-04-15T05:52:29.405Z,34.70
2018-04-15T05:53:29.381Z,34.30
2018-04-15T05:54:29.394Z,40.10
2018-04-15T05:55:29.479Z,46.00
2018-04-15T05:56:29.430Z,42.00
2018-04-15T05:57:29.449Z,37.50
2018-04-15T05:58:29.515Z,39.70
2018-04-15T05:59:29.544Z,43.10
2018-04-15T06:00:29.495Z,41.30
2018-04-15T06:01:29.531Z,37.10
2018-04-15T06:02:29.539Z,40.60
2018-04-15T06:03:29.554Z,42.90
2018-04-15T06:04:29.622Z,42.60
2018-04-15T06:05:29.586Z,42.50
2018-04-15T06:06:29.607Z,42.50
2018-04-15T06:07:29.626Z,44.60
2018-04-15T06:08:29.647Z,41.20
2018-04-15T06:09:29.665Z,39.10
2018-04-15T06:10:29.680Z,43.40
2018-04-15T06:11:29.697Z,42.50
2018-04-15T06:12:29.711Z,44.30
2018-04-15T06:13:29.823Z,47.50
2018-04-15T06:14:29.751Z,38.00
2018-04-15T06:15:29.762Z,46.00
2018-04-15T06:16:29.783Z,48.50
2018-04-15T06:17:29.810Z,43.60
2018-04-15T06:18:29.823Z,51.90
2018-04-15T06:19:29.835Z,47.30
2018-04-15T06:20:29.857Z,36.60
2018-04-15T06:21:29.874Z,46.20
2018-04-15T06:22:29.895Z,44.10
2018-04-15T06:23:29.917Z,41.80
2018-04-15T06:24:29.946Z,44.50
2018-04-15T06:25:29.946Z,37.40
2018-04-15T06:26:29.963Z,39.10
2018-04-15T06:27:29.992Z,35.50
2018-04-15T06:28:30.005Z,37.90
2018-04-15T06:29:30.013Z,39.50
2018-04-15T06:30:30.029Z,38.60
2018-04-15T06:31:30.050Z,39.60
2018-04-15T06:32:30.067Z,33.60
2018-04-15T06:33:30.081Z,34.00
2018-04-15T06:34:30.098Z,33.30
2018-04-15T06:35:30.118Z,34.60
2018-04-15T06:36:30.141Z,34.00
2018-04-15T06:37:30.228Z,36.60
2018-04-15T06:38:30.171Z,36.20
2018-04-15T06:39:30.194Z,40.10
2018-04-15T06:40:30.257Z,39.90
2018-04-15T06:41:30.226Z,32.80
2018-04-15T06:42:30.246Z,36.10
2018-04-15T06:43:30.273Z,36.60
2018-04-15T06:44:30.282Z,38.90
2018-04-15T06:45:30.295Z,33.20
2018-04-15T06:46:30.323Z,28.60
2018-04-15T06:47:30.335Z,30.90
2018-04-15T06:48:30.344Z,35.50
2018-04-15T06:49:30.369Z,34.90
2018-04-15T06:50:30.391Z,33.60
2018-04-15T06:51:30.405Z,33.30
2018-04-15T06:52:30.478Z,34.80
2018-04-15T06:53:30.444Z,32.20
2018-04-15T06:54:30.458Z,29.40
2018-04-15T06:55:30.471Z,37.60
2018-04-15T06:56:30.490Z,37.10
2018-04-15T06:57:30.513Z,31.30
2018-04-15T06:58:30.530Z,36.60
2018-04-15T06:59:30.544Z,37.80
2018-04-15T07:00:30.557Z,33.00
2018-04-15T07:01:30.618Z,38.40
2018-04-15T07:02:30.680Z,34.90
2018-04-15T07:03:30.617Z,31.50
2018-04-15T07:04:30.683Z,30.50
2018-04-15T07:05:30.654Z,26.60
2018-04-15T07:06:30.667Z,26.80
2018-04-15T07:07:30.686Z,27.80
2018-04-15T07:08:30.778Z,28.20
2018-04-15T07:09:30.740Z,24.90
2018-04-15T07:10:30.737Z,29.30
2018-04-15T07:11:30.757Z,27.70
2018-04-15T07:12:30.778Z,28.50
2018-04-15T07:13:30.794Z,30.00
2018-04-15T07:14:30.813Z,33.00
2018-04-15T07:15:30.828Z,31.00
2018-04-15T07:16:30.873Z,33.10
2018-04-15T07:17:30.865Z,31.30
2018-04-15T07:18:30.888Z,30.30
2018-04-15T07:19:30.903Z,24.00
2018-04-15T07:20:30.956Z,31.00
2018-04-15T07:21:30.932Z,24.90
2018-04-15T07:22:31.005Z,27.50
2018-04-15T07:23:30.976Z,35.50
2018-04-15T07:24:30.991Z,28.30
2018-04-15T07:25:31.007Z,27.00
2018-04-15T07:26:31.069Z,35.80
2018-04-15T07:27:31.053Z,33.70
2018-04-15T07:28:31.116Z,27.80
2018-04-15T07:29:31.081Z,27.90
2018-04-15T07:30:31.094Z,30.80
2018-04-15T07:31:31.118Z,27.00
2018-04-15T07:32:31.184Z,26.60
2018-04-15T07:33:31.155Z,27.80
2018-04-15T07:34:31.219Z,29.60
2018-04-15T07:35:31.188Z,31.90
2018-04-15T07:36:31.257Z,27.60
2018-04-15T07:37:31.225Z,29.90
2018-04-15T07:38:31.238Z,32.60
2018-04-15T07:39:31.259Z,34.00
2018-04-15T07:40:31.277Z,27.10
2018-04-15T07:41:31.294Z,23.60
2018-04-15T07:42:31.323Z,26.10
2018-04-15T07:43:31.330Z,23.60
2018-04-15T07:44:31.351Z,16.20
2018-04-15T07:45:31.432Z,14.90
2018-04-15T07:46:31.439Z,13.80
2018-04-15T07:47:31.404Z,12.30
2018-04-15T07:48:31.426Z,14.50
2018-04-15T07:49:31.442Z,14.80
2018-04-15T07:50:31.512Z,14.70
2018-04-15T07:51:31.542Z,14.40
2018-04-15T07:52:31.492Z,12.40
2018-04-15T07:53:31.510Z,10.10
2018-04-15T07:54:31.530Z,5.20
2018-04-15T07:55:31.548Z,3.30
2018-04-15T07:56:31.565Z,2.00
2018-04-15T07:57:31.588Z,1.80
2018-04-15T07:58:31.653Z,1.40
2018-04-15T07:59:31.621Z,1.30
2018-04-15T08:00:31.644Z,1.50
2018-04-15T08:01:31.655Z,1.30
2018-04-15T08:02:31.678Z,1.50
2018-04-15T08:03:31.693Z,1.60
2018-04-15T08:04:31.716Z,1.40
2018-04-15T08:05:31.730Z,1.40
2018-04-15T08:06:31.749Z,1.50
2018-04-15T08:07:31.763Z,1.30
2018-04-15T08:08:31.785Z,1.60
2018-04-15T08:09:31.803Z,1.50
2018-04-15T08:10:31.823Z,1.50
2018-04-15T08:11:31.838Z,1.60
2018-04-15T08:12:31.856Z,1.50
2018-04-15T08:13:31.876Z,1.00
2018-04-15T08:14:31.894Z,1.30
2018-04-15T08:15:31.920Z,1.30
2018-04-15T08:16:32.011Z,1.20
2018-04-15T08:17:31.946Z,1.00
2018-04-15T08:18:31.962Z,1.20
2018-04-15T08:19:31.982Z,1.30
2018-04-15T08:20:32.003Z,1.30
2018-04-15T08:21:32.024Z,0.80
2018-04-15T08:22:32.149Z,1.00
2018-04-15T08:23:32.055Z,1.20
2018-04-15T08:24:32.068Z,1.20
2018-04-15T08:25:32.089Z,1.20
2018-04-15T08:26:32.111Z,1.00
2018-04-15T08:27:32.141Z,1.00
2018-04-15T08:28:32.155Z,1.20
2018-04-15T08:29:32.167Z,1.30
2018-04-15T08:30:32.189Z,1.00
2018-04-15T08:31:32.204Z,1.00
2018-04-15T08:32:32.221Z,0.80
2018-04-15T08:33:32.239Z,1.10
2018-04-15T08:34:32.307Z,0.90
2018-04-15T08:35:32.306Z,0.80
2018-04-15T08:36:32.295Z,0.90
2018-04-15T08:37:32.308Z,0.90
2018-04-15T08:38:32.327Z,1.00
2018-04-15T08:39:32.348Z,0.60
2018-04-15T08:40:32.368Z,1.00
2018-04-15T08:41:32.441Z,0.90
2018-04-15T08:42:32.406Z,1.10
2018-04-15T08:43:32.420Z,0.90
2018-04-15T08:44:32.435Z,0.90
2018-04-15T08:45:32.461Z,1.00
2018-04-15T08:46:32.527Z,1.10
2018-04-15T08:47:32.495Z,1.00
2018-04-15T08:48:32.510Z,1.00
2018-04-15T08:49:32.531Z,1.00
2018-04-15T08:50:32.553Z,1.20
2018-04-15T08:51:32.572Z,1.10
2018-04-15T08:52:32.637Z,0.90
2018-04-15T08:53:32.605Z,0.90
2018-04-15T08:54:32.666Z,0.90
2018-04-15T08:55:32.642Z,0.80
2018-04-15T08:56:32.665Z,0.90
2018-04-15T08:57:32.676Z,0.80
2018-04-15T08:58:32.748Z,0.90
2018-04-15T08:59:32.716Z,0.80
2018-04-15T09:00:32.741Z,1.00
2018-04-15T09:01:32.745Z,0.90
2018-04-15T09:02:32.771Z,0.90
2018-04-15T09:03:32.789Z,0.90
2018-04-15T09:04:32.808Z,1.00
2018-04-15T09:05:32.824Z,0.90
2018-04-15T09:06:32.845Z,0.90
2018-04-15T09:07:32.860Z,0.90
2018-04-15T09:08:32.881Z,0.90
2018-04-15T09:09:32.901Z,1.10
2018-04-15T09:10:32.919Z,1.00
2018-04-15T09:11:32.938Z,1.20
2018-04-15T09:12:32.982Z,1.20
2018-04-15T09:13:32.975Z,1.20
2018-04-15T09:14:32.991Z,1.00
2018-04-15T09:15:33.014Z,1.10
2018-04-15T09:16:33.032Z,0.90
2018-04-15T09:17:33.046Z,0.90
2018-04-15T09:18:33.073Z,1.00
2018-04-15T09:19:33.088Z,1.00
2018-04-15T09:20:33.100Z,1.10
2018-04-15T09:21:33.132Z,1.00
2018-04-15T09:22:33.140Z,1.00
2018-04-15T09:23:33.157Z,1.20
2018-04-15T09:24:33.175Z,0.90
2018-04-15T09:25:33.194Z,1.10
2018-04-15T09:26:33.213Z,1.00
2018-04-15T09:27:33.233Z,1.10
2018-04-15T09:28:33.306Z,0.70
2018-04-15T09:29:33.312Z,0.90
2018-04-15T09:30:33.287Z,1.00
2018-04-15T09:31:33.331Z,1.10
2018-04-15T09:32:33.329Z,0.70
2018-04-15T09:33:33.345Z,0.90
2018-04-15T09:34:33.419Z,0.80
2018-04-15T09:35:33.396Z,0.90
2018-04-15T09:36:33.408Z,1.00
2018-04-15T09:37:33.424Z,0.90
2018-04-15T09:38:33.443Z,1.00
2018-04-15T09:39:33.462Z,1.20
2018-04-15T09:40:33.535Z,0.90
2018-04-15T09:41:33.501Z,1.00
2018-04-15T09:42:33.546Z,1.30
2018-04-15T09:43:33.535Z,1.50
2018-04-15T09:44:33.554Z,1.90
2018-04-15T09:45:33.577Z,1.80
2018-04-15T09:46:33.641Z,2.00
2018-04-15T09:47:33.610Z,1.90
2018-04-15T09:48:33.630Z,2.00
2018-04-15T09:49:33.648Z,2.10
2018-04-15T09:50:33.743Z,2.40
2018-04-15T09:51:33.691Z,2.60
2018-04-15T09:52:33.722Z,2.40
2018-04-15T09:53:33.721Z,2.40
2018-04-15T09:54:33.746Z,2.80
2018-04-15T09:55:33.761Z,2.80
2018-04-15T09:56:33.805Z,2.80
2018-04-15T09:57:33.794Z,2.80
2018-04-15T09:58:33.819Z,3.10
2018-04-15T09:59:33.832Z,3.20
2018-04-15T10:00:33.854Z,3.70
2018-04-15T10:01:33.870Z,3.50
2018-04-15T10:02:33.936Z,3.20
2018-04-15T10:03:33.917Z,3.50
2018-04-15T10:04:33.976Z,3.30
2018-04-15T10:05:33.943Z,3.80
2018-04-15T10:06:33.965Z,3.70
2018-04-15T10:07:33.985Z,3.90
2018-04-15T10:08:34.001Z,3.90
2018-04-15T10:09:34.020Z,3.60
2018-04-15T10:10:34.035Z,3.70
2018-04-15T10:11:34.058Z,3.60
2018-04-15T10:12:34.075Z,3.30
2018-04-15T10:13:34.094Z,3.30
2018-04-15T10:14:34.112Z,3.00
2018-04-15T10:15:34.159Z,3.10
2018-04-15T10:16:34.147Z,3.20
2018-04-15T10:17:34.170Z,3.00
2018-04-15T10:18:34.191Z,2.80
2018-04-15T10:19:34.207Z,2.70
2018-04-15T10:20:34.230Z,3.10
2018-04-15T10:21:34.285Z,3.10
2018-04-15T10:22:34.261Z,3.00
2018-04-15T10:23:34.287Z,2.90
2018-04-15T10:24:34.321Z,3.00
2018-04-15T10:25:34.315Z,2.70
2018-04-15T10:26:34.335Z,2.80
2018-04-15T10:27:34.400Z,3.00
2018-04-15T10:28:34.421Z,2.90
2018-04-15T10:29:34.396Z,2.80
2018-04-15T10:30:34.416Z,2.80
2018-04-15T10:31:34.431Z,3.10
2018-04-15T10:32:34.447Z,3.30
2018-04-15T10:33:34.463Z,2.90
2018-04-15T10:34:34.484Z,2.90
2018-04-15T10:35:34.501Z,2.90
2018-04-15T10:36:34.518Z,2.80
2018-04-15T10:37:34.540Z,3.00
2018-04-15T10:38:34.558Z,3.00
2018-04-15T10:39:34.578Z,2.80
2018-04-15T10:40:34.598Z,2.80
2018-04-15T10:41:34.615Z,3.20
2018-04-15T10:42:34.634Z,3.00
2018-04-15T10:43:34.659Z,3.00
2018-04-15T10:44:34.676Z,3.00
2018-04-15T10:45:34.692Z,2.80
2018-04-15T10:46:34.751Z,2.90
2018-04-15T10:47:34.730Z,2.80
2018-04-15T10:48:34.749Z,3.10
2018-04-15T10:49:34.771Z,3.00
2018-04-15T10:50:34.788Z,3.20
2018-04-15T10:51:34.807Z,2.80
2018-04-15T10:52:34.865Z,2.90
2018-04-15T10:53:34.851Z,3.20
2018-04-15T10:54:34.882Z,2.90
2018-04-15T10:55:34.891Z,3.70
2018-04-15T10:56:34.909Z,3.70
2018-04-15T10:57:34.931Z,4.00
2018-04-15T10:58:34.995Z,3.20
2018-04-15T10:59:34.969Z,3.20
2018-04-15T11:00:34.988Z,3.30
2018-04-15T11:01:35.002Z,3.30
2018-04-15T11:02:35.027Z,3.20
2018-04-15T11:03:35.042Z,3.40
2018-04-15T11:04:35.135Z,3.40
2018-04-15T11:05:35.081Z,3.00
2018-04-15T11:06:35.103Z,3.40
2018-04-15T11:07:35.120Z,3.20
2018-04-15T11:08:35.151Z,3.30
2018-04-15T11:09:35.164Z,3.40
2018-04-15T11:10:35.235Z,3.50
2018-04-15T11:11:35.208Z,3.20
2018-04-15T11:12:35.220Z,3.50
2018-04-15T11:13:35.240Z,3.50
2018-04-15T11:14:35.265Z,4.00
2018-04-15T11:15:35.281Z,3.10
2018-04-15T11:16:35.346Z,3.00
2018-04-15T11:17:35.318Z,3.00
2018-04-15T11:18:35.356Z,2.80
2018-04-15T11:19:35.357Z,2.80
2018-04-15T11:20:35.375Z,2.80
2018-04-15T11:21:35.451Z,3.10
2018-04-15T11:22:35.422Z,2.80
2018-04-15T11:23:35.491Z,2.80
2018-04-15T11:24:35.453Z,3.00
2018-04-15T11:25:35.478Z,3.30
2018-04-15T11:26:35.494Z,3.00
2018-04-15T11:27:35.565Z,3.50
2018-04-15T11:28:35.534Z,3.80
2018-04-15T11:29:35.552Z,3.90
2018-04-15T11:30:35.574Z,4.00
2018-04-15T11:31:35.596Z,3.80
2018-04-15T11:32:35.610Z,4.20
2018-04-15T11:33:35.682Z,4.10
2018-04-15T11:34:35.653Z,4.30
2018-04-15T11:35:35.671Z,4.20
2018-04-15T11:36:35.691Z,3.80
2018-04-15T11:37:35.706Z,3.90
2018-04-15T11:38:35.729Z,4.00
2018-04-15T11:39:35.800Z,4.20
2018-04-15T11:40:35.768Z,4.40
2018-04-15T11:41:35.801Z,3.70
2018-04-15T11:42:35.806Z,4.40
2018-04-15T11:43:35.828Z,4.20
2018-04-15T11:44:35.850Z,4.20
2018-04-15T11:45:35.921Z,4.20
2018-04-15T11:46:35.885Z,4.00
2018-04-15T11:47:35.912Z,3.90
2018-04-15T11:48:35.921Z,3.90
2018-04-15T11:49:35.941Z,4.50
2018-04-15T11:50:35.970Z,4.90
2018-04-15T11:51:36.178Z,4.40
2018-04-15T11:52:36.022Z,4.80
2018-04-15T11:53:36.100Z,4.70
2018-04-15T11:54:36.045Z,4.70
2018-04-15T11:55:36.067Z,4.70
2018-04-15T11:56:36.084Z,4.60
2018-04-15T11:57:36.159Z,4.40
2018-04-15T11:58:36.199Z,4.60
2018-04-15T11:59:36.210Z,4.60
2018-04-15T12:00:36.169Z,4.40
2018-04-15T12:01:36.189Z,4.50
2018-04-15T12:02:36.210Z,4.60
2018-04-15T12:03:36.280Z,5.00
2018-04-15T12:04:36.246Z,4.80
2018-04-15T12:05:36.295Z,4.90
2018-04-15T12:06:36.289Z,4.90
2018-04-15T12:07:36.307Z,4.80
2018-04-15T12:08:36.324Z,5.30
2018-04-15T12:09:36.396Z,5.10
2018-04-15T12:10:36.370Z,5.10
2018-04-15T12:11:36.391Z,5.30
2018-04-15T12:12:36.413Z,4.90
2018-04-15T12:13:36.428Z,5.30
2018-04-15T12:14:36.448Z,5.00
2018-04-15T12:15:36.523Z,5.30
2018-04-15T12:16:36.490Z,5.30
2018-04-15T12:17:36.513Z,5.20
2018-04-15T12:18:36.526Z,5.50
2018-04-15T12:19:36.548Z,5.80
2018-04-15T12:20:36.564Z,6.60
2018-04-15T12:21:36.636Z,7.30
2018-04-15T12:22:36.604Z,7.00
2018-04-15T12:23:36.632Z,7.00
2018-04-15T12:24:36.648Z,7.40
2018-04-15T12:25:36.673Z,7.30
2018-04-15T12:26:36.684Z,6.30
2018-04-15T12:27:36.756Z,6.20
2018-04-15T12:28:36.726Z,6.20
2018-04-15T12:29:36.753Z,6.20
2018-04-15T12:30:36.767Z,6.80
2018-04-15T12:31:36.801Z,6.60
2018-04-15T12:32:36.807Z,6.30
2018-04-15T12:33:36.928Z,6.10
2018-04-15T12:34:36.854Z,5.60
2018-04-15T12:35:36.867Z,6.00
2018-04-15T12:36:36.972Z,6.40
2018-04-15T12:37:36.904Z,6.50
2018-04-15T12:38:36.932Z,6.50
2018-04-15T12:39:36.947Z,6.80
2018-04-15T12:40:36.974Z,6.90
2018-04-15T12:41:36.984Z,6.80
2018-04-15T12:42:37.036Z,6.70
2018-04-15T12:43:37.031Z,7.50
2018-04-15T12:44:37.052Z,6.10
2018-04-15T12:45:37.120Z,6.70
2018-04-15T12:46:37.090Z,6.90
2018-04-15T12:47:37.112Z,6.70
2018-04-15T12:48:37.161Z,6.40
2018-04-15T12:49:37.154Z,6.30
2018-04-15T12:50:37.175Z,6.20
2018-04-15T12:51:37.241Z,6.50
2018-04-15T12:52:37.215Z,6.60
2018-04-15T12:53:37.281Z,7.40
2018-04-15T12:54:37.259Z,7.30
2018-04-15T12:55:37.275Z,7.30
2018-04-15T12:56:37.295Z,7.30
2018-04-15T12:57:37.320Z,5.80
2018-04-15T12:58:37.336Z,6.10
2018-04-15T12:59:37.368Z,5.90
2018-04-15T13:00:37.375Z,6.50
2018-04-15T13:01:37.482Z,5.80
2018-04-15T13:02:37.416Z,6.70
2018-04-15T13:03:37.492Z,6.00
2018-04-15T13:04:37.462Z,5.80
2018-04-15T13:05:37.480Z,6.10
2018-04-15T13:06:37.506Z,6.30
2018-04-15T13:07:37.549Z,6.50
2018-04-15T13:08:37.539Z,6.10